createdAt,value
2023-04-02T00:02:21.326Z,100697.06
2023-04-02T00:07:31.238Z,100697.34
2023-04-02T00:12:33.055Z,100716.16
2023-04-02T00:17:34.806Z,100733.03
2023-04-02T00:22:44.690Z,100745.44
2023-04-02T00:27:46.634Z,100751.25
2023-04-02T00:32:48.995Z,100779.66
2023-04-02T00:37:51.220Z,100785.47
2023-04-02T00:42:58.582Z,100793.16
2023-04-02T00:48:23.651Z,100793.66
2023-04-02T00:53:28.919Z,100798.78
2023-04-02T00:58:34.777Z,100809.94
2023-04-02T01:03:38.014Z,100816.91
2023-04-02T01:08:56.316Z,100821.66
2023-04-02T01:14:09.928Z,100829.66
2023-04-02T01:19:36.213Z,100828.53
2023-04-02T01:24:38.465Z,100849.44
2023-04-02T01:29:45.522Z,100865.44
2023-04-02T01:34:49.608Z,100892.78
2023-04-02T01:40:09.964Z,100913.75
2023-04-02T01:45:14.074Z,100917.59
2023-04-02T01:50:41.743Z,100941.59
2023-04-02T01:55:59.530Z,100944.44
2023-04-02T02:01:08.515Z,100955.53
2023-04-02T02:06:17.575Z,100957.13
2023-04-02T02:11:22.384Z,100954.03
2023-04-02T02:16:27.495Z,100964.13
2023-04-02T02:21:44.118Z,100975.84
2023-04-02T02:26:48.475Z,100987.31
2023-04-02T02:31:54.914Z,100992.78
2023-04-02T02:37:04.568Z,101008.44
2023-04-02T02:42:30.310Z,101012.72
2023-04-02T02:47:36.925Z,101023.63
2023-04-02T02:52:46.787Z,101031.16
2023-04-02T02:58:04.584Z,101057.19
2023-04-02T03:03:18.093Z,101082.31
2023-04-02T03:08:31.087Z,101089.88
2023-04-02T03:13:39.722Z,101102.94
2023-04-02T03:18:59.241Z,101118.56
2023-04-02T03:24:18.530Z,101136.69
2023-04-02T03:29:31.446Z,101162.50
2023-04-02T03:34:41.326Z,101179.56
2023-04-02T03:39:47.529Z,101197.63
2023-04-02T03:44:56.634Z,101205.34
2023-04-02T03:50:07.602Z,101223.00
2023-04-02T03:55:20.348Z,101245.13
2023-04-02T04:00:51.854Z,101265.22
2023-04-02T04:05:59.879Z,101274.28
2023-04-02T04:11:07.603Z,101282.16
2023-04-02T04:16:19.458Z,101321.28
2023-04-02T04:27:33.568Z,101344.22
2023-04-02T04:32:43.009Z,101355.53
2023-04-02T04:38:00.707Z,101374.22
2023-04-02T04:43:07.791Z,101383.88
2023-04-02T04:48:20.888Z,101404.41
2023-04-02T04:53:25.963Z,101410.13
2023-04-02T04:58:40.977Z,101430.63
2023-04-02T05:03:48.905Z,101444.38
2023-04-02T05:08:55.834Z,101458.75
2023-04-02T05:14:03.689Z,101483.28
2023-04-02T05:19:17.130Z,101493.69
2023-04-02T05:24:44.382Z,101499.66
2023-04-02T05:29:53.494Z,101524.38
2023-04-02T05:34:57.368Z,101531.19
2023-04-02T05:40:13.651Z,101560.28
2023-04-02T05:45:20.340Z,101574.31
2023-04-02T05:50:37.199Z,101585.56
2023-04-02T05:55:51.768Z,101593.97
2023-04-02T06:01:17.591Z,101613.59
2023-04-02T06:06:48.861Z,101632.31
2023-04-02T06:12:15.375Z,101642.78
2023-04-02T06:17:20.345Z,101669.28
2023-04-02T06:22:35.007Z,101677.91
2023-04-02T06:27:40.107Z,101699.03
2023-04-02T06:32:43.994Z,101715.56
2023-04-02T06:37:51.902Z,101723.66
2023-04-02T06:43:02.829Z,101718.00
2023-04-02T06:48:29.434Z,101737.81
2023-04-02T06:53:47.270Z,101744.47
2023-04-02T06:58:51.367Z,101763.00
2023-04-02T07:03:55.117Z,101767.81
2023-04-02T07:09:06.839Z,101788.16
2023-04-02T07:14:19.549Z,101796.72
2023-04-02T07:19:23.064Z,101802.19
2023-04-02T07:24:31.854Z,101810.88
2023-04-02T07:29:33.746Z,101817.94
2023-04-02T07:34:35.492Z,101838.72
2023-04-02T07:39:39.478Z,101844.75
2023-04-02T07:44:42.365Z,101854.69
2023-04-02T07:49:44.038Z,101861.09
2023-04-02T07:54:45.706Z,101879.44
2023-04-02T07:59:47.497Z,101889.47
2023-04-02T08:04:51.274Z,101890.00
2023-04-02T08:09:52.967Z,101916.34
2023-04-02T08:14:54.775Z,101916.59
2023-04-02T08:20:00.955Z,101935.06
2023-04-02T08:25:02.680Z,101946.88
2023-04-02T08:30:06.551Z,101968.88
2023-04-02T08:35:11.299Z,101969.38
2023-04-02T08:40:26.700Z,101989.53
2023-04-02T08:45:53.966Z,102010.94
2023-04-02T08:50:57.199Z,102002.53
2023-04-02T08:56:17.699Z,102021.88
2023-04-02T09:01:39.657Z,102016.44
2023-04-02T09:06:44.261Z,102046.16
2023-04-02T09:12:00.646Z,102063.78
2023-04-02T09:17:04.587Z,102071.13
2023-04-02T09:22:14.021Z,102074.66
2023-04-02T09:27:19.750Z,102076.06
2023-04-02T09:32:40.555Z,102084.47
2023-04-02T09:37:44.554Z,102101.59
2023-04-02T09:42:46.386Z,102103.22
2023-04-02T09:47:49.300Z,102116.44
2023-04-02T09:52:51.523Z,102131.00
2023-04-02T09:58:08.798Z,102132.28
2023-04-02T10:03:33.077Z,102151.59
2023-04-02T10:08:36.183Z,102154.25
2023-04-02T10:13:57.640Z,102174.06
2023-04-02T10:19:06.519Z,102187.63
2023-04-02T10:24:14.549Z,102183.31
2023-04-02T10:29:26.558Z,102214.63
2023-04-02T10:34:52.906Z,102212.78
2023-04-02T10:40:00.642Z,102255.03
2023-04-02T10:45:19.863Z,102264.84
2023-04-02T10:50:44.942Z,102257.97
2023-04-02T10:55:56.455Z,102273.59
2023-04-02T11:01:08.129Z,102279.94
2023-04-02T11:06:41.934Z,102280.84
2023-04-02T11:11:46.835Z,102286.91
2023-04-02T11:16:50.240Z,102304.00
2023-04-02T11:22:02.012Z,102294.09
2023-04-02T11:27:06.649Z,102286.50
2023-04-02T11:32:37.261Z,102307.19
2023-04-02T11:37:45.517Z,102316.28
2023-04-02T11:42:48.763Z,102337.59
2023-04-02T11:47:59.602Z,102300.78
2023-04-02T11:53:10.426Z,102307.69
2023-04-02T11:58:43.100Z,102338.69
2023-04-02T12:04:23.385Z,102334.81
2023-04-02T12:09:27.926Z,102331.91
2023-04-02T12:14:47.819Z,102346.03
2023-04-02T12:19:53.096Z,102352.22
2023-04-02T12:24:59.660Z,102352.59
2023-04-02T12:30:14.646Z,102364.28
2023-04-02T12:35:33.943Z,102379.59
2023-04-02T12:40:35.901Z,102379.22
2023-04-02T12:45:38.824Z,102391.09
2023-04-02T12:50:41.875Z,102395.88
2023-04-02T12:55:48.931Z,102384.97
2023-04-02T13:00:53.932Z,102395.91
2023-04-02T13:05:57.321Z,102414.03
2023-04-02T13:11:01.523Z,102419.66
2023-04-02T13:16:28.087Z,102417.38
2023-04-02T13:21:30.881Z,102435.28
2023-04-02T13:26:32.772Z,102431.91
2023-04-02T13:31:34.671Z,102431.19
2023-04-02T13:36:37.495Z,102438.56
2023-04-02T13:41:44.872Z,102446.53
2023-04-02T13:46:50.065Z,102457.47
2023-04-02T13:51:54.622Z,102460.66
2023-04-02T13:56:57.085Z,102473.25
2023-04-02T14:02:06.519Z,102469.69
2023-04-02T14:07:08.309Z,102462.34
2023-04-02T14:12:35.606Z,102473.09
2023-04-02T14:17:58.781Z,102476.50
2023-04-02T14:23:19.258Z,102483.09
2023-04-02T14:28:37.505Z,102477.69
2023-04-02T14:33:44.628Z,102481.81
2023-04-02T14:39:43.762Z,102485.81
2023-04-02T14:44:53.292Z,102494.44
2023-04-02T14:50:02.981Z,102508.38
2023-04-02T14:55:15.407Z,102502.59
2023-04-02T15:00:20.979Z,102508.34
2023-04-02T15:05:46.119Z,102519.41
2023-04-02T15:11:19.978Z,102521.19
2023-04-02T15:16:23.682Z,102529.06
2023-04-02T15:21:55.606Z,102532.59
2023-04-02T15:27:37.894Z,102535.03
2023-04-02T15:32:41.794Z,102534.25
2023-04-02T15:37:55.301Z,102538.91
2023-04-02T15:43:51.368Z,102548.00
2023-04-02T15:49:20.076Z,102555.50
2023-04-02T15:54:37.014Z,102553.56
2023-04-02T15:59:53.754Z,102550.19
2023-04-02T16:05:07.090Z,102555.00
2023-04-02T16:10:42.006Z,102569.34
2023-04-02T16:16:22.466Z,102570.81
2023-04-02T16:21:29.601Z,102574.25
2023-04-02T16:26:43.914Z,102578.06
2023-04-02T16:32:02.809Z,102591.81
2023-04-02T16:37:22.629Z,102596.56
2023-04-02T16:42:52.764Z,102607.75
2023-04-02T16:48:09.248Z,102611.41
2023-04-02T16:53:36.068Z,102612.91
2023-04-02T16:58:56.449Z,102619.34
2023-04-02T17:04:01.335Z,102626.38
2023-04-02T17:09:42.891Z,102636.53
2023-04-02T17:14:47.752Z,102642.25
2023-04-02T17:19:55.112Z,102653.13
2023-04-02T17:25:04.704Z,102656.16
2023-04-02T17:30:42.026Z,102663.03
2023-04-02T17:36:02.658Z,102663.91
2023-04-02T17:41:23.884Z,102678.38
2023-04-02T17:46:31.571Z,102688.59
2023-04-02T17:51:55.347Z,102687.31
2023-04-02T17:57:17.185Z,102697.94
2023-04-02T18:02:21.827Z,102706.81
2023-04-02T18:07:54.541Z,102711.34
2023-04-02T18:13:16.045Z,102721.53
2023-04-02T18:18:54.872Z,102715.56
2023-04-02T18:24:23.270Z,102724.06
2023-04-02T18:29:46.657Z,102737.00
2023-04-02T18:35:22.462Z,102744.16
2023-04-02T18:40:43.400Z,102746.56
2023-04-02T18:45:56.285Z,102738.22
2023-04-02T18:51:00.415Z,102757.69
2023-04-02T18:56:12.042Z,102762.81
2023-04-02T19:01:18.529Z,102769.75
2023-04-02T19:06:25.673Z,102775.38
2023-04-02T19:11:31.437Z,102763.22
2023-04-02T19:16:57.399Z,102753.16
2023-04-02T19:22:33.778Z,102746.53
2023-04-02T19:27:58.173Z,102767.16
2023-04-02T19:33:23.524Z,102747.88
2023-04-02T19:38:52.363Z,102705.16
2023-04-02T19:43:55.374Z,102705.53
2023-04-02T19:49:06.315Z,102725.50
2023-04-02T19:54:11.305Z,102760.78
2023-04-02T20:04:17.604Z,102720.22
2023-04-02T20:09:21.133Z,102694.97
2023-04-02T20:14:22.955Z,102682.41
2023-04-02T20:19:24.918Z,102662.31
2023-04-02T20:24:26.475Z,102640.44
2023-04-02T20:29:30.450Z,102618.22
2023-04-02T20:34:32.647Z,102596.38
2023-04-02T20:39:34.489Z,102610.06
2023-04-02T20:44:36.131Z,102604.25
2023-04-02T20:49:37.972Z,102626.56
2023-04-02T20:54:39.732Z,102641.41
2023-04-02T20:59:41.352Z,102661.38
2023-04-02T21:04:43.029Z,102688.19
2023-04-02T21:09:44.598Z,102659.00
2023-04-02T21:14:46.632Z,102655.72
2023-04-02T21:19:48.324Z,102642.47
2023-04-02T21:24:51.380Z,102706.03
2023-04-02T21:29:53.183Z,102752.78
2023-04-02T21:34:55.308Z,102781.31
2023-04-02T21:39:57.105Z,102798.88
2023-04-02T21:44:58.899Z,102809.44
2023-04-02T21:50:00.532Z,102822.88
2023-04-02T21:55:02.148Z,102833.53
2023-04-02T22:00:10.651Z,102839.84
2023-04-02T22:05:12.543Z,102858.97
2023-04-02T22:10:14.386Z,102865.09
2023-04-02T22:15:16.204Z,102862.06
2023-04-02T22:20:17.785Z,102862.63
2023-04-02T22:25:19.476Z,102872.34
2023-04-02T22:30:21.242Z,102878.84
2023-04-02T22:35:22.835Z,102897.59
2023-04-02T22:40:24.551Z,102889.94
2023-04-02T22:45:26.401Z,102902.53
2023-04-02T22:50:28.186Z,102903.34
2023-04-02T22:55:29.884Z,102910.00
2023-04-02T23:00:31.540Z,102921.66
2023-04-02T23:05:33.472Z,102933.00
2023-04-02T23:10:35.588Z,102937.88
2023-04-02T23:15:37.414Z,102938.44
2023-04-02T23:20:40.702Z,102951.03
2023-04-02T23:25:43.114Z,102947.63
2023-04-02T23:30:44.796Z,102947.38
2023-04-02T23:35:46.518Z,102942.13
2023-04-02T23:40:48.517Z,102938.97
2023-04-02T23:45:58.239Z,102950.22
2023-04-02T23:51:00.055Z,102938.22
2023-04-02T23:56:02.122Z,102937.44
